sensor_id;sensor_type;location;lat;lon;timestamp;pressure;altitude;pressure_sealevel;temperature;humidity
8477;BME280;4275;42.854;23.222;2023-11-19T00:01:15;39660.25;;;-141.02;97.68
8477;BME280;4275;42.854;23.222;2023-11-19T00:03:42;39650.66;;;-141.02;96.76
8477;BME280;4275;42.854;23.222;2023-11-19T00:06:10;39679.44;;;-141.02;96.72
8477;BME280;4275;42.854;23.222;2023-11-19T00:08:44;39675.59;;;-141.02;96.36
8477;BME280;4275;42.854;23.222;2023-11-19T00:11:11;39654.50;;;-141.02;96.81
8477;BME280;4275;42.854;23.222;2023-11-19T00:13:44;39677.50;;;-141.02;96.49
8477;BME280;4275;42.854;23.222;2023-11-19T00:16:49;39627.66;;;-141.02;97.27
8477;BME280;4275;42.854;23.222;2023-11-19T00:19:17;39731.22;;;-141.02;95.64
8477;BME280;4275;42.854;23.222;2023-11-19T00:21:44;39677.50;;;-141.02;96.77
8477;BME280;4275;42.854;23.222;2023-11-19T00:27:49;39685.19;;;-141.02;97.89
8477;BME280;4275;42.854;23.222;2023-11-19T00:30:52;39639.16;;;-141.02;96.59
8477;BME280;4275;42.854;23.222;2023-11-19T00:33:21;39666.00;;;-141.02;96.14
8477;BME280;4275;42.854;23.222;2023-11-19T00:35:50;39658.34;;;-141.02;95.98
8477;BME280;4275;42.854;23.222;2023-11-19T00:38:26;39669.84;;;-141.02;96.78
8477;BME280;4275;42.854;23.222;2023-11-19T00:40:53;39689.03;;;-141.02;95.79
8477;BME280;4275;42.854;23.222;2023-11-19T00:43:20;39677.50;;;-141.02;96.63
8477;BME280;4275;42.854;23.222;2023-11-19T00:45:47;39685.19;;;-141.02;97.98
8477;BME280;4275;42.854;23.222;2023-11-19T00:48:17;39669.84;;;-141.02;97.86
8477;BME280;4275;42.854;23.222;2023-11-19T00:50:44;39685.19;;;-141.02;98.27
8477;BME280;4275;42.854;23.222;2023-11-19T00:53:18;39669.84;;;-141.02;98.36
8477;BME280;4275;42.854;23.222;2023-11-19T00:55:46;39689.03;;;-141.02;98.32
8477;BME280;4275;42.854;23.222;2023-11-19T00:58:18;39673.69;;;-141.02;99.08
8477;BME280;4275;42.854;23.222;2023-11-19T01:00:46;39658.34;;;-141.02;98.71
8477;BME280;4275;42.854;23.222;2023-11-19T01:03:17;39742.72;;;-141.02;99.12
8477;BME280;4275;42.854;23.222;2023-11-19T01:05:44;39685.19;;;-141.02;99.04
8477;BME280;4275;42.854;23.222;2023-11-19T01:08:15;39708.19;;;-141.02;98.52
8477;BME280;4275;42.854;23.222;2023-11-19T01:10:44;39690.94;;;-141.02;98.86
8477;BME280;4275;42.854;23.222;2023-11-19T01:13:18;39666.00;;;-141.02;99.76
8477;BME280;4275;42.854;23.222;2023-11-19T01:15:46;39687.09;;;-141.02;100.00
8477;BME280;4275;42.854;23.222;2023-11-19T01:18:18;39700.53;;;-141.02;99.49
8477;BME280;4275;42.854;23.222;2023-11-19T01:20:45;39708.19;;;-141.02;100.00
8477;BME280;4275;42.854;23.222;2023-11-19T01:26:40;39694.78;;;-141.02;100.00
8477;BME280;4275;42.854;23.222;2023-11-19T01:29:10;39677.50;;;-141.02;100.00
8477;BME280;4275;42.854;23.222;2023-11-19T01:31:39;39719.72;;;-141.02;99.42
8477;BME280;4275;42.854;23.222;2023-11-19T01:34:07;39708.19;;;-141.02;99.39
8477;BME280;4275;42.854;23.222;2023-11-19T01:36:35;39719.72;;;-141.02;99.84
8477;BME280;4275;42.854;23.222;2023-11-19T01:39:02;39735.06;;;-141.02;100.00
8477;BME280;4275;42.854;23.222;2023-11-19T01:41:34;39736.97;;;-141.02;99.94
8477;BME280;4275;42.854;23.222;2023-11-19T01:44:07;39715.88;;;-141.02;98.96
8477;BME280;4275;42.854;23.222;2023-11-19T01:46:35;39708.19;;;-141.02;99.37
8477;BME280;4275;42.854;23.222;2023-11-19T01:49:03;39727.38;;;-141.02;98.41
8477;BME280;4275;42.854;23.222;2023-11-19T01:51:33;39729.31;;;-141.02;98.95
8477;BME280;4275;42.854;23.222;2023-11-19T01:54:01;39731.22;;;-141.02;98.87
8477;BME280;4275;42.854;23.222;2023-11-19T01:56:28;39689.03;;;-141.02;99.71
8477;BME280;4275;42.854;23.222;2023-11-19T01:58:56;39713.97;;;-141.02;99.32
8477;BME280;4275;42.854;23.222;2023-11-19T02:01:38;39961.38;;;-141.02;98.00
8477;BME280;4275;42.854;23.222;2023-11-19T02:04:15;39750.41;;;-141.02;97.76
8477;BME280;4275;42.854;23.222;2023-11-19T02:09:52;39698.63;;;-141.02;96.98
8477;BME280;4275;42.854;23.222;2023-11-19T02:12:19;39738.88;;;-141.02;98.35
8477;BME280;4275;42.854;23.222;2023-11-19T02:14:53;39673.69;;;-141.02;97.32
8477;BME280;4275;42.854;23.222;2023-11-19T02:17:26;39692.84;;;-141.02;97.50
8477;BME280;4275;42.854;23.222;2023-11-19T02:19:54;39715.88;;;-141.02;96.92
8477;BME280;4275;42.854;23.222;2023-11-19T02:22:24;39704.38;;;-141.02;96.86
8477;BME280;4275;42.854;23.222;2023-11-19T02:25:00;39723.53;;;-141.02;98.00
8477;BME280;4275;42.854;23.222;2023-11-19T02:27:47;39731.22;;;-141.02;96.32
8477;BME280;4275;42.854;23.222;2023-11-19T02:30:23;39725.47;;;-141.02;95.33
8477;BME280;4275;42.854;23.222;2023-11-19T02:32:56;39727.38;;;-141.02;97.11
8477;BME280;4275;42.854;23.222;2023-11-19T02:36:01;39706.28;;;-141.02;96.18
8477;BME280;4275;42.854;23.222;2023-11-19T02:45:17;39756.16;;;-141.02;97.90
8477;BME280;4275;42.854;23.222;2023-11-19T02:47:44;39742.72;;;-141.02;97.73
8477;BME280;4275;42.854;23.222;2023-11-19T02:50:11;39758.06;;;-141.02;97.00
8477;BME280;4275;42.854;23.222;2023-11-19T02:52:40;39715.88;;;-141.02;95.47
8477;BME280;4275;42.854;23.222;2023-11-19T02:55:07;39704.38;;;-141.02;96.31
8477;BME280;4275;42.854;23.222;2023-11-19T02:57:38;39804.09;;;-141.02;96.81
8477;BME280;4275;42.854;23.222;2023-11-19T03:00:07;39763.81;;;-141.02;98.06
8477;BME280;4275;42.854;23.222;2023-11-19T03:02:40;39738.88;;;-141.02;97.56
8477;BME280;4275;42.854;23.222;2023-11-19T03:05:12;39769.56;;;-141.02;99.37
8477;BME280;4275;42.854;23.222;2023-11-19T03:07:41;39742.72;;;-141.02;98.78
8477;BME280;4275;42.854;23.222;2023-11-19T03:10:09;39769.56;;;-141.02;98.32
8477;BME280;4275;42.854;23.222;2023-11-19T03:12:39;39746.56;;;-141.02;98.62
8477;BME280;4275;42.854;23.222;2023-11-19T03:15:07;39777.25;;;-141.02;98.11
8477;BME280;4275;42.854;23.222;2023-11-19T03:17:36;39754.22;;;-141.02;97.81
8477;BME280;4275;42.854;23.222;2023-11-19T03:20:07;39761.91;;;-141.02;98.49
8477;BME280;4275;42.854;23.222;2023-11-19T03:22:36;39727.38;;;-141.02;97.97
8477;BME280;4275;42.854;23.222;2023-11-19T03:25:05;39754.22;;;-141.02;97.62
8477;BME280;4275;42.854;23.222;2023-11-19T03:27:34;39712.03;;;-141.02;98.45
8477;BME280;4275;42.854;23.222;2023-11-19T03:30:04;39781.09;;;-141.02;99.39
8477;BME280;4275;42.854;23.222;2023-11-19T03:32:33;39746.56;;;-141.02;98.27
8477;BME280;4275;42.854;23.222;2023-11-19T03:35:06;39827.13;;;-141.02;98.05
8477;BME280;4275;42.854;23.222;2023-11-19T03:37:34;39784.91;;;-141.02;97.52
8477;BME280;4275;42.854;23.222;2023-11-19T03:40:04;39738.88;;;-141.02;98.52
8477;BME280;4275;42.854;23.222;2023-11-19T03:42:33;39738.88;;;-141.02;97.46
8477;BME280;4275;42.854;23.222;2023-11-19T03:45:03;39775.34;;;-141.02;98.44
8477;BME280;4275;42.854;23.222;2023-11-19T03:47:33;39761.91;;;-141.02;98.78
8477;BME280;4275;42.854;23.222;2023-11-19T03:50:07;39742.72;;;-141.02;98.17
8477;BME280;4275;42.854;23.222;2023-11-19T03:52:34;39752.31;;;-141.02;98.01
8477;BME280;4275;42.854;23.222;2023-11-19T03:55:04;39727.38;;;-141.02;96.24
8477;BME280;4275;42.854;23.222;2023-11-19T03:57:34;39719.72;;;-141.02;97.19
8477;BME280;4275;42.854;23.222;2023-11-19T04:00:07;39750.41;;;-141.02;98.12
8477;BME280;4275;42.854;23.222;2023-11-19T04:02:35;39742.72;;;-141.02;100.00
8477;BME280;4275;42.854;23.222;2023-11-19T04:05:06;39767.66;;;-141.02;100.00
8477;BME280;4275;42.854;23.222;2023-11-19T04:07:34;39769.56;;;-141.02;100.00
8477;BME280;4275;42.854;23.222;2023-11-19T04:10:05;39773.41;;;-141.02;100.00
8477;BME280;4275;42.854;23.222;2023-11-19T04:12:35;39765.75;;;-141.02;100.00
8477;BME280;4275;42.854;23.222;2023-11-19T04:15:06;39738.88;;;-141.02;100.00
8477;BME280;4275;42.854;23.222;2023-11-19T04:17:35;39721.63;;;-141.02;99.56
8477;BME280;4275;42.854;23.222;2023-11-19T04:20:07;39800.25;;;-141.02;100.00
8477;BME280;4275;42.854;23.222;2023-11-19T04:22:36;39758.06;;;-141.02;100.00
8477;BME280;4275;42.854;23.222;2023-11-19T04:25:10;39754.22;;;-141.02;100.00
8477;BME280;4275;42.854;23.222;2023-11-19T04:30:57;39731.22;;;-141.02;100.00
8477;BME280;4275;42.854;23.222;2023-11-19T04:33:24;39727.38;;;-141.02;100.00
8477;BME280;4275;42.854;23.222;2023-11-19T04:35:53;39723.53;;;-141.02;100.00
8477;BME280;4275;42.854;23.222;2023-11-19T04:38:20;39773.41;;;-141.02;100.00
8477;BME280;4275;42.854;23.222;2023-11-19T04:40:50;39788.75;;;-141.02;100.00
8477;BME280;4275;42.854;23.222;2023-11-19T04:43:19;39783.00;;;-141.02;100.00
8477;BME280;4275;42.854;23.222;2023-11-19T04:45:49;39750.41;;;-141.02;100.00
8477;BME280;4275;42.854;23.222;2023-11-19T04:48:22;39748.47;;;-141.02;100.00
8477;BME280;4275;42.854;23.222;2023-11-19T04:50:50;39792.59;;;-141.02;100.00
8477;BME280;4275;42.854;23.222;2023-11-19T04:53:21;39792.59;;;-141.02;100.00
8477;BME280;4275;42.854;23.222;2023-11-19T04:55:49;39781.09;;;-141.02;100.00
8477;BME280;4275;42.854;23.222;2023-11-19T04:58:19;39760.00;;;-141.02;100.00
8477;BME280;4275;42.854;23.222;2023-11-19T05:00:51;39733.13;;;-141.02;100.00
8477;BME280;4275;42.854;23.222;2023-11-19T05:03:20;39781.09;;;-141.02;100.00
8477;BME280;4275;42.854;23.222;2023-11-19T05:05:50;39771.50;;;-141.02;100.00
8477;BME280;4275;42.854;23.222;2023-11-19T05:08:21;39761.91;;;-141.02;100.00
8477;BME280;4275;42.854;23.222;2023-11-19T05:10:50;39748.47;;;-141.02;100.00
8477;BME280;4275;42.854;23.222;2023-11-19T05:13:20;39811.78;;;-141.02;100.00
8477;BME280;4275;42.854;23.222;2023-11-19T05:15:49;39819.44;;;-141.02;100.00
8477;BME280;4275;42.854;23.222;2023-11-19T05:18:20;39903.84;;;-141.02;100.00
8477;BME280;4275;42.854;23.222;2023-11-19T05:20:49;39884.66;;;-141.02;100.00
8477;BME280;4275;42.854;23.222;2023-11-19T05:23:38;39949.88;;;-141.02;100.00
8477;BME280;4275;42.854;23.222;2023-11-19T05:26:07;39949.88;;;-141.02;100.00
8477;BME280;4275;42.854;23.222;2023-11-19T05:28:37;39972.88;;;-141.02;100.00
8477;BME280;4275;42.854;23.222;2023-11-19T05:31:05;39999.75;;;-141.02;100.00
8477;BME280;4275;42.854;23.222;2023-11-19T05:33:32;40009.34;;;-141.02;100.00
8477;BME280;4275;42.854;23.222;2023-11-19T05:39:22;40061.13;;;-141.02;100.00
8477;BME280;4275;42.854;23.222;2023-11-19T05:41:49;40097.56;;;-141.02;100.00
8477;BME280;4275;42.854;23.222;2023-11-19T05:44:17;40164.72;;;-141.02;100.00
8477;BME280;4275;42.854;23.222;2023-11-19T05:46:45;40295.16;;;-141.02;100.00
8477;BME280;4275;42.854;23.222;2023-11-19T05:49:12;40302.81;;;-141.02;100.00
8477;BME280;4275;42.854;23.222;2023-11-19T05:51:39;40371.88;;;-141.02;100.00
8477;BME280;4275;42.854;23.222;2023-11-19T05:54:07;40364.22;;;-141.02;100.00
8477;BME280;4275;42.854;23.222;2023-11-19T05:56:36;40291.31;;;-141.02;100.00
8477;BME280;4275;42.854;23.222;2023-11-19T05:59:03;40387.22;;;-141.02;100.00
8477;BME280;4275;42.854;23.222;2023-11-19T06:01:33;40391.06;;;-141.02;100.00
8477;BME280;4275;42.854;23.222;2023-11-19T06:04:00;40417.94;;;-141.02;100.00
8477;BME280;4275;42.854;23.222;2023-11-19T06:06:30;40375.72;;;-141.02;100.00
8477;BME280;4275;42.854;23.222;2023-11-19T06:09:01;40435.19;;;-141.02;100.00
8477;BME280;4275;42.854;23.222;2023-11-19T06:11:38;40394.91;;;-141.02;100.00
8477;BME280;4275;42.854;23.222;2023-11-19T06:14:14;40414.09;;;-141.02;100.00
8477;BME280;4275;42.854;23.222;2023-11-19T06:16:41;40479.31;;;-141.02;100.00
8477;BME280;4275;42.854;23.222;2023-11-19T06:19:36;40548.38;;;-141.02;100.00
8477;BME280;4275;42.854;23.222;2023-11-19T06:22:08;40517.69;;;-141.02;100.00
8477;BME280;4275;42.854;23.222;2023-11-19T06:24:37;40486.97;;;-141.02;100.00
8477;BME280;4275;42.854;23.222;2023-11-19T06:27:06;40510.00;;;-141.02;100.00
8477;BME280;4275;42.854;23.222;2023-11-19T06:29:34;40552.22;;;-141.02;100.00
8477;BME280;4275;42.854;23.222;2023-11-19T06:35:36;40515.75;;;-141.02;100.00
8477;BME280;4275;42.854;23.222;2023-11-19T06:38:07;40510.00;;;-141.02;100.00
8477;BME280;4275;42.854;23.222;2023-11-19T06:40:41;40544.53;;;-141.02;100.00
8477;BME280;4275;42.854;23.222;2023-11-19T06:43:33;40582.91;;;-141.02;100.00
8477;BME280;4275;42.854;23.222;2023-11-19T06:46:00;40533.03;;;-141.02;100.00
8477;BME280;4275;42.854;23.222;2023-11-19T06:48:27;40571.41;;;-141.02;100.00
8477;BME280;4275;42.854;23.222;2023-11-19T06:50:54;40582.91;;;-141.02;100.00
8477;BME280;4275;42.854;23.222;2023-11-19T06:53:21;40565.63;;;-141.02;100.00
8477;BME280;4275;42.854;23.222;2023-11-19T06:59:13;40605.94;;;-141.02;100.00
8477;BME280;4275;42.854;23.222;2023-11-19T07:01:40;40586.75;;;-141.02;100.00
8477;BME280;4275;42.854;23.222;2023-11-19T07:04:10;40602.09;;;-141.02;100.00
8477;BME280;4275;42.854;23.222;2023-11-19T07:06:38;40561.81;;;-141.02;100.00
8477;BME280;4275;42.854;23.222;2023-11-19T07:09:06;40550.28;;;-141.02;99.82
8477;BME280;4275;42.854;23.222;2023-11-19T07:11:36;40556.03;;;-141.02;100.00
8477;BME280;4275;42.854;23.222;2023-11-19T07:14:05;40577.16;;;-141.02;100.00
8477;BME280;4275;42.854;23.222;2023-11-19T07:16:34;40598.25;;;-141.02;100.00
8477;BME280;4275;42.854;23.222;2023-11-19T07:19:03;40592.50;;;-141.02;100.00
8477;BME280;4275;42.854;23.222;2023-11-19T07:21:30;40577.16;;;-141.02;100.00
8477;BME280;4275;42.854;23.222;2023-11-19T07:27:20;40571.41;;;-141.02;100.00
8477;BME280;4275;42.854;23.222;2023-11-19T07:29:59;40592.50;;;-141.02;100.00
8477;BME280;4275;42.854;23.222;2023-11-19T07:32:48;40613.59;;;-141.02;100.00
8477;BME280;4275;42.854;23.222;2023-11-19T07:35:22;40636.63;;;-141.02;100.00
8477;BME280;4275;42.854;23.222;2023-11-19T07:37:58;40692.25;;;-141.02;100.00
8477;BME280;4275;42.854;23.222;2023-11-19T07:40:43;40598.25;;;-141.02;100.00
8477;BME280;4275;42.854;23.222;2023-11-19T07:43:15;40675.00;;;-141.02;100.00
8477;BME280;4275;42.854;23.222;2023-11-19T07:45:48;40651.97;;;-141.02;100.00
8477;BME280;4275;42.854;23.222;2023-11-19T07:48:25;40709.53;;;-141.02;100.00
8477;BME280;4275;42.854;23.222;2023-11-19T07:50:56;40657.72;;;-141.02;100.00
8477;BME280;4275;42.854;23.222;2023-11-19T07:53:28;40667.31;;;-141.02;100.00
8477;BME280;4275;42.854;23.222;2023-11-19T07:56:00;40696.09;;;-141.02;100.00
8477;BME280;4275;42.854;23.222;2023-11-19T07:58:33;40728.72;;;-141.02;100.00
8477;BME280;4275;42.854;23.222;2023-11-19T08:01:10;40732.56;;;-141.02;100.00
8477;BME280;4275;42.854;23.222;2023-11-19T08:03:49;40732.56;;;-141.02;100.00
8477;BME280;4275;42.854;23.222;2023-11-19T08:06:22;40724.88;;;-141.02;100.00
8477;BME280;4275;42.854;23.222;2023-11-19T08:08:49;40751.72;;;-141.02;100.00
8477;BME280;4275;42.854;23.222;2023-11-19T08:11:17;40730.63;;;-141.02;100.00
8477;BME280;4275;42.854;23.222;2023-11-19T08:16:31;40765.16;;;-141.02;99.65
8477;BME280;4275;42.854;23.222;2023-11-19T08:18:59;40778.59;;;-141.02;99.88
8477;BME280;4275;42.854;23.222;2023-11-19T08:21:27;40744.06;;;-141.02;99.79
8477;BME280;4275;42.854;23.222;2023-11-19T08:23:54;40832.31;;;-141.02;99.24
8477;BME280;4275;42.854;23.222;2023-11-19T08:29:41;40778.59;;;-141.02;97.01
8477;BME280;4275;42.854;23.222;2023-11-19T08:32:12;40717.19;;;-141.02;96.24
8477;BME280;4275;42.854;23.222;2023-11-19T08:34:43;40694.19;;;-141.02;97.81
8477;BME280;4275;42.854;23.222;2023-11-19T08:37:10;40696.09;;;-141.02;97.89
8477;BME280;4275;42.854;23.222;2023-11-19T08:39:37;40722.97;;;-141.02;98.76
8477;BME280;4275;42.854;23.222;2023-11-19T08:42:04;40709.53;;;-141.02;100.00
8477;BME280;4275;42.854;23.222;2023-11-19T08:47:55;40728.72;;;-141.02;99.60
8477;BME280;4275;42.854;23.222;2023-11-19T08:50:29;40703.78;;;-141.02;98.31
8477;BME280;4275;42.854;23.222;2023-11-19T08:59:44;40755.56;;;-141.02;98.57
8477;BME280;4275;42.854;23.222;2023-11-19T09:02:17;40719.13;;;-141.02;97.49
8477;BME280;4275;42.854;23.222;2023-11-19T09:04:58;40701.84;;;-141.02;98.17
8477;BME280;4275;42.854;23.222;2023-11-19T09:07:35;40709.53;;;-141.02;99.41
8477;BME280;4275;42.854;23.222;2023-11-19T09:10:09;40709.53;;;-141.02;99.21
8477;BME280;4275;42.854;23.222;2023-11-19T09:12:43;40728.72;;;-141.02;99.16
8477;BME280;4275;42.854;23.222;2023-11-19T09:15:15;40736.38;;;-141.02;98.84
8477;BME280;4275;42.854;23.222;2023-11-19T09:17:47;40740.22;;;-141.02;99.36
8477;BME280;4275;42.854;23.222;2023-11-19T09:20:18;40772.84;;;-141.02;97.71
8477;BME280;4275;42.854;23.222;2023-11-19T09:22:46;40663.47;;;-141.02;97.59
8477;BME280;4275;42.854;23.222;2023-11-19T09:25:13;40678.84;;;-141.02;97.98
8477;BME280;4275;42.854;23.222;2023-11-19T09:27:44;40744.06;;;-141.02;98.20
8477;BME280;4275;42.854;23.222;2023-11-19T09:30:18;40719.13;;;-141.02;98.71
8477;BME280;4275;42.854;23.222;2023-11-19T09:32:50;40765.16;;;-141.02;98.00
8477;BME280;4275;42.854;23.222;2023-11-19T09:35:27;40774.75;;;-141.02;96.52
8477;BME280;4275;42.854;23.222;2023-11-19T09:37:56;40797.78;;;-141.02;97.03
8477;BME280;4275;42.854;23.222;2023-11-19T09:40:24;40736.38;;;-141.02;95.33
8477;BME280;4275;42.854;23.222;2023-11-19T09:42:51;40797.78;;;-141.02;95.69
8477;BME280;4275;42.854;23.222;2023-11-19T09:45:20;40805.47;;;-141.02;96.16
8477;BME280;4275;42.854;23.222;2023-11-19T09:47:48;40851.50;;;-141.02;96.17
8477;BME280;4275;42.854;23.222;2023-11-19T09:50:19;40857.25;;;-141.02;95.25
8477;BME280;4275;42.854;23.222;2023-11-19T09:56:42;40861.09;;;-141.02;93.79
8477;BME280;4275;42.854;23.222;2023-11-19T09:59:16;40832.31;;;-141.02;93.19
8477;BME280;4275;42.854;23.222;2023-11-19T10:01:50;40840.00;;;-141.02;94.12
8477;BME280;4275;42.854;23.222;2023-11-19T10:04:22;40855.34;;;-141.02;94.71
8477;BME280;4275;42.854;23.222;2023-11-19T10:06:56;40878.38;;;-141.02;94.02
8477;BME280;4275;42.854;23.222;2023-11-19T10:09:29;40843.81;;;-141.02;94.38
8477;BME280;4275;42.854;23.222;2023-11-19T10:12:00;40840.00;;;-141.02;92.08
8477;BME280;4275;42.854;23.222;2023-11-19T10:14:28;40889.88;;;-141.02;93.59
8477;BME280;4275;42.854;23.222;2023-11-19T10:20:20;40866.84;;;-141.02;92.13
8477;BME280;4275;42.854;23.222;2023-11-19T10:22:47;40930.16;;;-141.02;94.54
8477;BME280;4275;42.854;23.222;2023-11-19T10:25:24;40949.34;;;-141.02;92.40
8477;BME280;4275;42.854;23.222;2023-11-19T10:27:53;40897.56;;;-141.02;92.25
8477;BME280;4275;42.854;23.222;2023-11-19T10:30:21;40895.63;;;-141.02;90.75
8477;BME280;4275;42.854;23.222;2023-11-19T10:33:05;40947.44;;;-141.02;90.22
8477;BME280;4275;42.854;23.222;2023-11-19T10:35:33;40932.09;;;-141.02;90.42
8477;BME280;4275;42.854;23.222;2023-11-19T10:38:01;40909.06;;;-141.02;88.53
8477;BME280;4275;42.854;23.222;2023-11-19T10:40:38;40901.38;;;-141.02;89.51
8477;BME280;4275;42.854;23.222;2023-11-19T10:43:08;40853.41;;;-141.02;88.24
8477;BME280;4275;42.854;23.222;2023-11-19T10:45:35;40863.00;;;-141.02;88.46
8477;BME280;4275;42.854;23.222;2023-11-19T10:48:04;40769.00;;;-141.02;88.91
8477;BME280;4275;42.854;23.222;2023-11-19T10:50:35;40843.81;;;-141.02;88.41
8477;BME280;4275;42.854;23.222;2023-11-19T10:53:09;40922.50;;;-141.02;90.23
8477;BME280;4275;42.854;23.222;2023-11-19T10:55:42;40895.63;;;-141.02;88.23
8477;BME280;4275;42.854;23.222;2023-11-19T10:58:24;40893.72;;;-141.02;89.36
8477;BME280;4275;42.854;23.222;2023-11-19T11:01:19;40886.03;;;-141.02;89.09
8477;BME280;4275;42.854;23.222;2023-11-19T11:03:47;40928.25;;;-141.02;88.07
8477;BME280;4275;42.854;23.222;2023-11-19T11:13:07;40907.16;;;-141.02;88.11
8477;BME280;4275;42.854;23.222;2023-11-19T11:19:46;40887.97;;;-141.02;88.10
8477;BME280;4275;42.854;23.222;2023-11-19T11:29:54;41014.59;;;-141.02;85.88
8477;BME280;4275;42.854;23.222;2023-11-19T11:32:37;40932.09;;;-141.02;84.92
8477;BME280;4275;42.854;23.222;2023-11-19T11:35:30;40926.31;;;-141.02;84.35
8477;BME280;4275;42.854;23.222;2023-11-19T11:38:03;40995.41;;;-141.02;81.56
8477;BME280;4275;42.854;23.222;2023-11-19T11:40:30;41035.69;;;-141.02;81.79
8477;BME280;4275;42.854;23.222;2023-11-19T11:43:02;41008.84;;;-141.02;79.11
8477;BME280;4275;42.854;23.222;2023-11-19T11:52:05;40870.69;;;-141.02;78.24
8477;BME280;4275;42.854;23.222;2023-11-19T11:54:46;40928.25;;;-141.02;78.40
8477;BME280;4275;42.854;23.222;2023-11-19T11:57:18;40843.81;;;-141.02;79.19
8477;BME280;4275;42.854;23.222;2023-11-19T11:59:52;41104.78;;;-141.02;76.77
8477;BME280;4275;42.854;23.222;2023-11-19T12:02:24;40955.09;;;-141.02;75.35
8477;BME280;4275;42.854;23.222;2023-11-19T12:04:56;41008.84;;;-141.02;76.22
8477;BME280;4275;42.854;23.222;2023-11-19T12:07:34;41006.91;;;-141.02;77.79
8477;BME280;4275;42.854;23.222;2023-11-19T12:10:09;41005.00;;;-141.02;76.09
8477;BME280;4275;42.854;23.222;2023-11-19T12:12:44;41006.91;;;-141.02;77.35
8477;BME280;4275;42.854;23.222;2023-11-19T12:15:16;41001.16;;;-141.02;76.00
8477;BME280;4275;42.854;23.222;2023-11-19T12:17:58;41070.22;;;-141.02;75.69
8477;BME280;4275;42.854;23.222;2023-11-19T12:20:26;41064.47;;;-141.02;75.32
8477;BME280;4275;42.854;23.222;2023-11-19T12:23:04;41054.88;;;-141.02;76.03
8477;BME280;4275;42.854;23.222;2023-11-19T12:25:34;41062.56;;;-141.02;74.93
8477;BME280;4275;42.854;23.222;2023-11-19T12:28:01;41052.97;;;-141.02;74.74
8477;BME280;4275;42.854;23.222;2023-11-19T12:30:30;41139.31;;;-141.02;73.78
8477;BME280;4275;42.854;23.222;2023-11-19T12:36:25;41227.56;;;-141.02;71.20
8477;BME280;4275;42.854;23.222;2023-11-19T12:39:02;41212.22;;;-141.02;69.31
8477;BME280;4275;42.854;23.222;2023-11-19T12:41:30;41193.03;;;-141.02;69.90
8477;BME280;4275;42.854;23.222;2023-11-19T12:44:09;41135.47;;;-141.02;66.30
8477;BME280;4275;42.854;23.222;2023-11-19T12:46:37;41281.31;;;-141.02;66.86
8477;BME280;4275;42.854;23.222;2023-11-19T12:49:04;41248.69;;;-141.02;69.35
8477;BME280;4275;42.854;23.222;2023-11-19T12:51:31;41250.59;;;-141.02;65.97
8477;BME280;4275;42.854;23.222;2023-11-19T12:53:58;41300.50;;;-141.02;64.79
8477;BME280;4275;42.854;23.222;2023-11-19T12:56:27;41302.41;;;-141.02;63.68
8477;BME280;4275;42.854;23.222;2023-11-19T12:58:55;41281.31;;;-141.02;64.53
8477;BME280;4275;42.854;23.222;2023-11-19T13:01:22;41338.88;;;-141.02;63.14
8477;BME280;4275;42.854;23.222;2023-11-19T13:03:49;41277.47;;;-141.02;65.90
8477;BME280;4275;42.854;23.222;2023-11-19T13:06:19;41358.06;;;-141.02;65.24
8477;BME280;4275;42.854;23.222;2023-11-19T13:09:12;41358.06;;;-141.02;65.08
8477;BME280;4275;42.854;23.222;2023-11-19T13:12:15;41386.84;;;-141.02;65.38
8477;BME280;4275;42.854;23.222;2023-11-19T13:14:46;41310.09;;;-141.02;66.10
8477;BME280;4275;42.854;23.222;2023-11-19T13:17:34;41302.41;;;-141.02;65.91
8477;BME280;4275;42.854;23.222;2023-11-19T13:20:12;41394.50;;;-141.02;68.65
8477;BME280;4275;42.854;23.222;2023-11-19T13:23:01;41392.59;;;-141.02;67.67
8477;BME280;4275;42.854;23.222;2023-11-19T13:28:58;41367.66;;;-141.02;67.53
8477;BME280;4275;42.854;23.222;2023-11-19T13:31:37;41319.69;;;-141.02;67.43
8477;BME280;4275;42.854;23.222;2023-11-19T13:34:09;41369.56;;;-141.02;68.33
8477;BME280;4275;42.854;23.222;2023-11-19T13:36:41;41312.00;;;-141.02;68.40
8477;BME280;4275;42.854;23.222;2023-11-19T13:39:48;41338.88;;;-141.02;67.38
8477;BME280;4275;42.854;23.222;2023-11-19T13:42:25;41248.69;;;-141.02;68.90
8477;BME280;4275;42.854;23.222;2023-11-19T13:45:01;41308.16;;;-141.02;70.44
8477;BME280;4275;42.854;23.222;2023-11-19T13:47:30;41277.47;;;-141.02;70.55
8477;BME280;4275;42.854;23.222;2023-11-19T13:49:57;41335.03;;;-141.02;70.95
8477;BME280;4275;42.854;23.222;2023-11-19T13:52:24;41415.63;;;-141.02;71.07
8477;BME280;4275;42.854;23.222;2023-11-19T13:55:11;41411.78;;;-141.02;70.13
8477;BME280;4275;42.854;23.222;2023-11-19T13:57:44;41344.63;;;-141.02;69.14
8477;BME280;4275;42.854;23.222;2023-11-19T14:00:14;41327.34;;;-141.02;69.79
8477;BME280;4275;42.854;23.222;2023-11-19T14:03:00;41411.78;;;-141.02;69.70
8477;BME280;4275;42.854;23.222;2023-11-19T14:05:32;41300.50;;;-141.02;70.33
8477;BME280;4275;42.854;23.222;2023-11-19T14:08:05;41342.69;;;-141.02;69.96
8477;BME280;4275;42.854;23.222;2023-11-19T14:10:39;41304.31;;;-141.02;70.15
8477;BME280;4275;42.854;23.222;2023-11-19T14:13:17;41250.59;;;-141.02;69.65
8477;BME280;4275;42.854;23.222;2023-11-19T14:16:14;41264.03;;;-141.02;69.75
8477;BME280;4275;42.854;23.222;2023-11-19T14:18:47;41367.66;;;-141.02;70.05
8477;BME280;4275;42.854;23.222;2023-11-19T14:21:18;41296.66;;;-141.02;68.74
8477;BME280;4275;42.854;23.222;2023-11-19T14:23:52;41285.13;;;-141.02;69.30
8477;BME280;4275;42.854;23.222;2023-11-19T14:26:25;41129.72;;;-141.02;69.47
8477;BME280;4275;42.854;23.222;2023-11-19T14:29:03;40962.78;;;-141.02;70.74
8477;BME280;4275;42.854;23.222;2023-11-19T14:31:32;40955.09;;;-141.02;70.58
8477;BME280;4275;42.854;23.222;2023-11-19T14:34:18;40962.78;;;-141.02;72.07
8477;BME280;4275;42.854;23.222;2023-11-19T14:36:50;40899.47;;;-141.02;72.25
8477;BME280;4275;42.854;23.222;2023-11-19T14:39:23;40920.56;;;-141.02;71.44
8477;BME280;4275;42.854;23.222;2023-11-19T14:41:55;40901.38;;;-141.02;71.56